sensor_id;sensor_type;location;lat;lon;timestamp;P1;durP1;ratioP1;P2;durP2;ratioP2
11777;SDS011;5946;51.770;8.548;2023-10-09T00:01:39;18.07;;;10.27;;
11777;SDS011;5946;51.770;8.548;2023-10-09T00:04:08;34.37;;;15.17;;
11777;SDS011;5946;51.770;8.548;2023-10-09T00:06:36;26.40;;;13.70;;
11777;SDS011;5946;51.770;8.548;2023-10-09T00:09:05;25.17;;;13.93;;
11777;SDS011;5946;51.770;8.548;2023-10-09T00:11:43;23.53;;;12.57;;
11777;SDS011;5946;51.770;8.548;2023-10-09T00:14:13;24.33;;;13.57;;
11777;SDS011;5946;51.770;8.548;2023-10-09T00:16:40;22.13;;;13.53;;
11777;SDS011;5946;51.770;8.548;2023-10-09T00:19:21;20.93;;;12.73;;
11777;SDS011;5946;51.770;8.548;2023-10-09T00:21:56;28.80;;;15.07;;
11777;SDS011;5946;51.770;8.548;2023-10-09T00:24:24;30.30;;;17.00;;
11777;SDS011;5946;51.770;8.548;2023-10-09T00:26:50;25.63;;;14.03;;
11777;SDS011;5946;51.770;8.548;2023-10-09T00:29:35;32.83;;;15.87;;
11777;SDS011;5946;51.770;8.548;2023-10-09T00:32:07;36.73;;;18.67;;
11777;SDS011;5946;51.770;8.548;2023-10-09T00:34:44;33.73;;;16.63;;
11777;SDS011;5946;51.770;8.548;2023-10-09T00:37:15;31.20;;;16.27;;
11777;SDS011;5946;51.770;8.548;2023-10-09T00:39:42;31.37;;;16.80;;
11777;SDS011;5946;51.770;8.548;2023-10-09T00:42:09;34.10;;;17.67;;
11777;SDS011;5946;51.770;8.548;2023-10-09T00:44:38;33.50;;;18.57;;
11777;SDS011;5946;51.770;8.548;2023-10-09T00:47:07;40.50;;;20.00;;
11777;SDS011;5946;51.770;8.548;2023-10-09T00:49:48;38.67;;;20.37;;
11777;SDS011;5946;51.770;8.548;2023-10-09T00:52:15;35.50;;;18.37;;
11777;SDS011;5946;51.770;8.548;2023-10-09T00:54:56;34.57;;;18.33;;
11777;SDS011;5946;51.770;8.548;2023-10-09T00:57:26;32.80;;;17.90;;
11777;SDS011;5946;51.770;8.548;2023-10-09T00:59:53;33.57;;;17.60;;
11777;SDS011;5946;51.770;8.548;2023-10-09T01:02:26;32.10;;;17.40;;
11777;SDS011;5946;51.770;8.548;2023-10-09T01:05:07;34.07;;;18.43;;
11777;SDS011;5946;51.770;8.548;2023-10-09T01:07:45;32.93;;;18.37;;
11777;SDS011;5946;51.770;8.548;2023-10-09T01:10:11;38.67;;;18.67;;
11777;SDS011;5946;51.770;8.548;2023-10-09T01:12:41;32.60;;;18.23;;
11777;SDS011;5946;51.770;8.548;2023-10-09T01:15:09;33.77;;;18.37;;
11777;SDS011;5946;51.770;8.548;2023-10-09T01:17:44;33.20;;;17.13;;
11777;SDS011;5946;51.770;8.548;2023-10-09T01:20:11;30.13;;;16.97;;
11777;SDS011;5946;51.770;8.548;2023-10-09T01:22:42;39.60;;;19.80;;
11777;SDS011;5946;51.770;8.548;2023-10-09T01:25:12;36.87;;;19.27;;
11777;SDS011;5946;51.770;8.548;2023-10-09T01:27:38;33.10;;;17.90;;
11777;SDS011;5946;51.770;8.548;2023-10-09T01:30:05;33.53;;;17.70;;
11777;SDS011;5946;51.770;8.548;2023-10-09T01:32:35;34.57;;;18.20;;
11777;SDS011;5946;51.770;8.548;2023-10-09T01:35:01;33.23;;;18.10;;
11777;SDS011;5946;51.770;8.548;2023-10-09T01:37:33;39.17;;;20.00;;
11777;SDS011;5946;51.770;8.548;2023-10-09T01:40:02;42.30;;;19.73;;
11777;SDS011;5946;51.770;8.548;2023-10-09T01:42:50;43.53;;;20.93;;
11777;SDS011;5946;51.770;8.548;2023-10-09T01:45:16;57.90;;;26.73;;
11777;SDS011;5946;51.770;8.548;2023-10-09T01:47:44;57.60;;;27.93;;
11777;SDS011;5946;51.770;8.548;2023-10-09T01:50:16;59.27;;;27.20;;
11777;SDS011;5946;51.770;8.548;2023-10-09T01:52:55;58.67;;;28.57;;
11777;SDS011;5946;51.770;8.548;2023-10-09T01:55:21;53.70;;;27.43;;
11777;SDS011;5946;51.770;8.548;2023-10-09T01:57:56;52.67;;;27.23;;
11777;SDS011;5946;51.770;8.548;2023-10-09T02:00:30;46.90;;;25.20;;
11777;SDS011;5946;51.770;8.548;2023-10-09T02:02:56;48.50;;;25.10;;
11777;SDS011;5946;51.770;8.548;2023-10-09T02:05:27;48.03;;;24.70;;
11777;SDS011;5946;51.770;8.548;2023-10-09T02:07:58;49.50;;;25.47;;
11777;SDS011;5946;51.770;8.548;2023-10-09T02:10:27;48.60;;;24.53;;
11777;SDS011;5946;51.770;8.548;2023-10-09T02:12:53;47.57;;;24.07;;
11777;SDS011;5946;51.770;8.548;2023-10-09T02:15:27;51.60;;;25.23;;
11777;SDS011;5946;51.770;8.548;2023-10-09T02:18:12;54.60;;;26.17;;
11777;SDS011;5946;51.770;8.548;2023-10-09T02:21:08;45.10;;;24.47;;
11777;SDS011;5946;51.770;8.548;2023-10-09T02:23:36;46.10;;;24.97;;
11777;SDS011;5946;51.770;8.548;2023-10-09T02:26:15;50.43;;;24.47;;
11777;SDS011;5946;51.770;8.548;2023-10-09T02:28:51;46.67;;;22.70;;
11777;SDS011;5946;51.770;8.548;2023-10-09T02:31:23;47.80;;;22.80;;
11777;SDS011;5946;51.770;8.548;2023-10-09T02:33:51;40.60;;;21.20;;
11777;SDS011;5946;51.770;8.548;2023-10-09T02:36:23;38.00;;;22.10;;
11777;SDS011;5946;51.770;8.548;2023-10-09T02:38:49;35.20;;;21.07;;
11777;SDS011;5946;51.770;8.548;2023-10-09T02:41:18;36.33;;;21.10;;
11777;SDS011;5946;51.770;8.548;2023-10-09T02:43:53;39.73;;;21.50;;
11777;SDS011;5946;51.770;8.548;2023-10-09T02:46:35;33.07;;;20.53;;
11777;SDS011;5946;51.770;8.548;2023-10-09T02:49:01;37.57;;;21.70;;
11777;SDS011;5946;51.770;8.548;2023-10-09T02:51:34;43.20;;;21.57;;
11777;SDS011;5946;51.770;8.548;2023-10-09T02:54:07;34.80;;;20.93;;
11777;SDS011;5946;51.770;8.548;2023-10-09T02:56:48;35.00;;;21.53;;
11777;SDS011;5946;51.770;8.548;2023-10-09T02:59:22;37.73;;;21.63;;
11777;SDS011;5946;51.770;8.548;2023-10-09T03:01:48;38.03;;;22.07;;
11777;SDS011;5946;51.770;8.548;2023-10-09T03:04:14;38.70;;;20.60;;
11777;SDS011;5946;51.770;8.548;2023-10-09T03:06:40;33.97;;;20.33;;
11777;SDS011;5946;51.770;8.548;2023-10-09T03:09:19;37.07;;;22.27;;
11777;SDS011;5946;51.770;8.548;2023-10-09T03:11:52;38.37;;;21.80;;
11777;SDS011;5946;51.770;8.548;2023-10-09T03:14:19;36.30;;;21.30;;
11777;SDS011;5946;51.770;8.548;2023-10-09T03:16:46;34.43;;;22.00;;
11777;SDS011;5946;51.770;8.548;2023-10-09T03:19:14;31.73;;;21.73;;
11777;SDS011;5946;51.770;8.548;2023-10-09T03:21:40;41.57;;;21.73;;
11777;SDS011;5946;51.770;8.548;2023-10-09T03:24:06;35.87;;;21.23;;
11777;SDS011;5946;51.770;8.548;2023-10-09T03:26:33;32.87;;;21.40;;
11777;SDS011;5946;51.770;8.548;2023-10-09T03:28:59;33.57;;;21.20;;
11777;SDS011;5946;51.770;8.548;2023-10-09T03:31:35;38.80;;;22.00;;
11777;SDS011;5946;51.770;8.548;2023-10-09T03:34:01;33.33;;;20.90;;
11777;SDS011;5946;51.770;8.548;2023-10-09T03:36:28;37.73;;;21.63;;
11777;SDS011;5946;51.770;8.548;2023-10-09T03:38:55;37.37;;;21.80;;
11777;SDS011;5946;51.770;8.548;2023-10-09T03:41:23;36.83;;;21.40;;
11777;SDS011;5946;51.770;8.548;2023-10-09T03:43:51;37.23;;;20.77;;
11777;SDS011;5946;51.770;8.548;2023-10-09T03:46:17;41.27;;;23.00;;
11777;SDS011;5946;51.770;8.548;2023-10-09T03:48:47;34.13;;;21.10;;
11777;SDS011;5946;51.770;8.548;2023-10-09T03:51:13;38.97;;;22.23;;
11777;SDS011;5946;51.770;8.548;2023-10-09T03:53:46;36.53;;;22.50;;
11777;SDS011;5946;51.770;8.548;2023-10-09T03:56:12;35.60;;;22.30;;
11777;SDS011;5946;51.770;8.548;2023-10-09T03:58:41;37.77;;;21.87;;
11777;SDS011;5946;51.770;8.548;2023-10-09T04:01:11;32.33;;;21.53;;
11777;SDS011;5946;51.770;8.548;2023-10-09T04:03:47;40.90;;;21.60;;
11777;SDS011;5946;51.770;8.548;2023-10-09T04:06:13;36.00;;;21.47;;
11777;SDS011;5946;51.770;8.548;2023-10-09T04:08:42;39.37;;;22.73;;
11777;SDS011;5946;51.770;8.548;2023-10-09T04:11:11;39.53;;;23.20;;
11777;SDS011;5946;51.770;8.548;2023-10-09T04:13:42;37.20;;;23.40;;
11777;SDS011;5946;51.770;8.548;2023-10-09T04:16:11;37.93;;;23.60;;
11777;SDS011;5946;51.770;8.548;2023-10-09T04:18:55;38.87;;;23.03;;
11777;SDS011;5946;51.770;8.548;2023-10-09T04:21:21;42.40;;;23.73;;
11777;SDS011;5946;51.770;8.548;2023-10-09T04:24:07;42.87;;;24.40;;
11777;SDS011;5946;51.770;8.548;2023-10-09T04:26:40;41.13;;;24.63;;
11777;SDS011;5946;51.770;8.548;2023-10-09T04:29:12;40.17;;;24.37;;
11777;SDS011;5946;51.770;8.548;2023-10-09T04:32:03;41.70;;;24.00;;
11777;SDS011;5946;51.770;8.548;2023-10-09T04:34:32;40.13;;;24.63;;
11777;SDS011;5946;51.770;8.548;2023-10-09T04:37:03;34.40;;;23.90;;
11777;SDS011;5946;51.770;8.548;2023-10-09T04:39:49;36.73;;;22.97;;
11777;SDS011;5946;51.770;8.548;2023-10-09T04:42:26;37.40;;;24.50;;
11777;SDS011;5946;51.770;8.548;2023-10-09T04:45:04;41.67;;;24.00;;
11777;SDS011;5946;51.770;8.548;2023-10-09T04:50:23;39.27;;;22.90;;
11777;SDS011;5946;51.770;8.548;2023-10-09T04:52:55;39.73;;;22.50;;
11777;SDS011;5946;51.770;8.548;2023-10-09T04:55:30;35.90;;;21.63;;
11777;SDS011;5946;51.770;8.548;2023-10-09T04:58:03;31.97;;;21.27;;
11777;SDS011;5946;51.770;8.548;2023-10-09T05:00:32;33.83;;;20.23;;
11777;SDS011;5946;51.770;8.548;2023-10-09T05:03:01;33.80;;;19.10;;
11777;SDS011;5946;51.770;8.548;2023-10-09T05:05:37;35.27;;;18.93;;
11777;SDS011;5946;51.770;8.548;2023-10-09T05:08:07;30.73;;;19.10;;
11777;SDS011;5946;51.770;8.548;2023-10-09T05:10:50;28.03;;;17.83;;
11777;SDS011;5946;51.770;8.548;2023-10-09T05:13:22;30.00;;;17.93;;
11777;SDS011;5946;51.770;8.548;2023-10-09T05:18:52;24.80;;;16.87;;
11777;SDS011;5946;51.770;8.548;2023-10-09T05:21:24;26.93;;;17.10;;
11777;SDS011;5946;51.770;8.548;2023-10-09T05:23:56;25.83;;;16.83;;
11777;SDS011;5946;51.770;8.548;2023-10-09T05:26:38;24.57;;;16.27;;
11777;SDS011;5946;51.770;8.548;2023-10-09T05:29:13;25.07;;;16.03;;
11777;SDS011;5946;51.770;8.548;2023-10-09T05:31:46;26.20;;;15.83;;
11777;SDS011;5946;51.770;8.548;2023-10-09T05:34:42;26.70;;;16.13;;
11777;SDS011;5946;51.770;8.548;2023-10-09T05:37:28;30.67;;;16.47;;
11777;SDS011;5946;51.770;8.548;2023-10-09T05:40:08;26.53;;;16.07;;
11777;SDS011;5946;51.770;8.548;2023-10-09T05:42:43;21.77;;;14.87;;
11777;SDS011;5946;51.770;8.548;2023-10-09T05:45:10;28.37;;;16.10;;
11777;SDS011;5946;51.770;8.548;2023-10-09T05:47:49;24.60;;;16.27;;
11777;SDS011;5946;51.770;8.548;2023-10-09T05:50:19;20.67;;;14.77;;
11777;SDS011;5946;51.770;8.548;2023-10-09T05:52:47;23.93;;;15.10;;
11777;SDS011;5946;51.770;8.548;2023-10-09T05:55:16;23.90;;;14.37;;
11777;SDS011;5946;51.770;8.548;2023-10-09T05:58:01;26.70;;;14.27;;
11777;SDS011;5946;51.770;8.548;2023-10-09T06:00:40;23.63;;;15.07;;
11777;SDS011;5946;51.770;8.548;2023-10-09T06:03:25;28.57;;;15.93;;
11777;SDS011;5946;51.770;8.548;2023-10-09T06:05:54;24.53;;;15.47;;
11777;SDS011;5946;51.770;8.548;2023-10-09T06:08:24;26.27;;;14.70;;
11777;SDS011;5946;51.770;8.548;2023-10-09T06:10:52;22.93;;;15.00;;
11777;SDS011;5946;51.770;8.548;2023-10-09T06:13:31;24.57;;;15.40;;
11777;SDS011;5946;51.770;8.548;2023-10-09T06:16:10;22.23;;;15.53;;
11777;SDS011;5946;51.770;8.548;2023-10-09T06:18:56;26.23;;;15.83;;
11777;SDS011;5946;51.770;8.548;2023-10-09T06:21:49;21.90;;;14.93;;
11777;SDS011;5946;51.770;8.548;2023-10-09T06:24:18;25.43;;;15.57;;
11777;SDS011;5946;51.770;8.548;2023-10-09T06:26:45;24.77;;;15.20;;
11777;SDS011;5946;51.770;8.548;2023-10-09T06:29:23;22.97;;;15.23;;
11777;SDS011;5946;51.770;8.548;2023-10-09T06:32:06;27.50;;;15.73;;
11777;SDS011;5946;51.770;8.548;2023-10-09T06:34:57;24.00;;;16.07;;
11777;SDS011;5946;51.770;8.548;2023-10-09T06:37:41;22.90;;;16.03;;
11777;SDS011;5946;51.770;8.548;2023-10-09T06:40:26;21.40;;;15.60;;
11777;SDS011;5946;51.770;8.548;2023-10-09T06:43:01;23.70;;;16.53;;
11777;SDS011;5946;51.770;8.548;2023-10-09T06:45:37;23.57;;;15.70;;
11777;SDS011;5946;51.770;8.548;2023-10-09T06:48:10;26.87;;;16.50;;
11777;SDS011;5946;51.770;8.548;2023-10-09T06:50:54;27.17;;;16.43;;
11777;SDS011;5946;51.770;8.548;2023-10-09T06:53:21;23.33;;;15.20;;
11777;SDS011;5946;51.770;8.548;2023-10-09T06:55:53;24.20;;;15.00;;
11777;SDS011;5946;51.770;8.548;2023-10-09T06:58:32;21.43;;;14.87;;
11777;SDS011;5946;51.770;8.548;2023-10-09T07:01:07;22.37;;;16.10;;
11777;SDS011;5946;51.770;8.548;2023-10-09T07:03:52;22.37;;;15.43;;
11777;SDS011;5946;51.770;8.548;2023-10-09T07:06:19;22.60;;;15.43;;
11777;SDS011;5946;51.770;8.548;2023-10-09T07:08:51;26.57;;;15.13;;
11777;SDS011;5946;51.770;8.548;2023-10-09T07:14:07;23.03;;;15.53;;
11777;SDS011;5946;51.770;8.548;2023-10-09T07:16:33;27.30;;;15.43;;
11777;SDS011;5946;51.770;8.548;2023-10-09T07:19:22;23.03;;;15.13;;
11777;SDS011;5946;51.770;8.548;2023-10-09T07:22:20;25.57;;;15.77;;
11777;SDS011;5946;51.770;8.548;2023-10-09T07:24:52;25.57;;;15.83;;
11777;SDS011;5946;51.770;8.548;2023-10-09T07:30:07;22.40;;;15.40;;
11777;SDS011;5946;51.770;8.548;2023-10-09T07:32:59;23.10;;;14.83;;
11777;SDS011;5946;51.770;8.548;2023-10-09T07:35:35;24.50;;;15.67;;
11777;SDS011;5946;51.770;8.548;2023-10-09T07:38:17;29.80;;;16.07;;
11777;SDS011;5946;51.770;8.548;2023-10-09T07:40:48;23.30;;;15.87;;
11777;SDS011;5946;51.770;8.548;2023-10-09T07:43:24;22.57;;;14.70;;
11777;SDS011;5946;51.770;8.548;2023-10-09T07:46:17;26.33;;;14.63;;
11777;SDS011;5946;51.770;8.548;2023-10-09T07:49:15;23.40;;;15.27;;
11777;SDS011;5946;51.770;8.548;2023-10-09T07:51:49;24.30;;;14.90;;
11777;SDS011;5946;51.770;8.548;2023-10-09T07:54:17;24.70;;;15.23;;
11777;SDS011;5946;51.770;8.548;2023-10-09T07:56:57;27.47;;;15.07;;
11777;SDS011;5946;51.770;8.548;2023-10-09T07:59:33;23.00;;;14.30;;
11777;SDS011;5946;51.770;8.548;2023-10-09T08:02:06;22.53;;;14.40;;
11777;SDS011;5946;51.770;8.548;2023-10-09T08:04:38;24.93;;;14.63;;
11777;SDS011;5946;51.770;8.548;2023-10-09T08:07:13;25.43;;;14.63;;
11777;SDS011;5946;51.770;8.548;2023-10-09T08:09:50;24.53;;;14.80;;
11777;SDS011;5946;51.770;8.548;2023-10-09T08:12:36;25.57;;;15.13;;
11777;SDS011;5946;51.770;8.548;2023-10-09T08:15:12;20.40;;;13.70;;
11777;SDS011;5946;51.770;8.548;2023-10-09T08:17:47;21.43;;;14.57;;
11777;SDS011;5946;51.770;8.548;2023-10-09T08:20:20;24.63;;;14.60;;
11777;SDS011;5946;51.770;8.548;2023-10-09T08:22:50;24.70;;;14.90;;
11777;SDS011;5946;51.770;8.548;2023-10-09T08:25:17;28.47;;;15.70;;
11777;SDS011;5946;51.770;8.548;2023-10-09T08:28:00;24.90;;;14.33;;
11777;SDS011;5946;51.770;8.548;2023-10-09T08:30:39;22.97;;;13.53;;
11777;SDS011;5946;51.770;8.548;2023-10-09T08:33:20;26.30;;;14.33;;
11777;SDS011;5946;51.770;8.548;2023-10-09T08:35:53;23.43;;;14.07;;
11777;SDS011;5946;51.770;8.548;2023-10-09T08:38:27;21.30;;;14.73;;
11777;SDS011;5946;51.770;8.548;2023-10-09T08:41:05;27.30;;;14.63;;
11777;SDS011;5946;51.770;8.548;2023-10-09T08:43:40;22.33;;;14.13;;
11777;SDS011;5946;51.770;8.548;2023-10-09T08:46:07;23.90;;;14.63;;
11777;SDS011;5946;51.770;8.548;2023-10-09T08:48:33;24.57;;;15.13;;
11777;SDS011;5946;51.770;8.548;2023-10-09T08:51:02;22.77;;;14.03;;
11777;SDS011;5946;51.770;8.548;2023-10-09T08:53:31;21.03;;;14.23;;
11777;SDS011;5946;51.770;8.548;2023-10-09T08:55:58;22.93;;;14.37;;
11777;SDS011;5946;51.770;8.548;2023-10-09T08:58:24;25.93;;;15.63;;
11777;SDS011;5946;51.770;8.548;2023-10-09T09:00:51;22.47;;;14.87;;
11777;SDS011;5946;51.770;8.548;2023-10-09T09:03:20;22.47;;;15.50;;
11777;SDS011;5946;51.770;8.548;2023-10-09T09:05:59;26.37;;;16.17;;
11777;SDS011;5946;51.770;8.548;2023-10-09T09:08:30;25.73;;;15.73;;
11777;SDS011;5946;51.770;8.548;2023-10-09T09:11:00;26.53;;;15.93;;
11777;SDS011;5946;51.770;8.548;2023-10-09T09:13:45;29.57;;;16.43;;
11777;SDS011;5946;51.770;8.548;2023-10-09T09:21:28;27.23;;;16.47;;
11777;SDS011;5946;51.770;8.548;2023-10-09T09:23:58;26.20;;;16.07;;
11777;SDS011;5946;51.770;8.548;2023-10-09T09:26:33;24.77;;;15.83;;
11777;SDS011;5946;51.770;8.548;2023-10-09T09:29:03;26.23;;;16.30;;
11777;SDS011;5946;51.770;8.548;2023-10-09T09:31:33;22.23;;;15.50;;
11777;SDS011;5946;51.770;8.548;2023-10-09T09:34:06;20.77;;;14.83;;
11777;SDS011;5946;51.770;8.548;2023-10-09T09:36:41;22.80;;;15.23;;
11777;SDS011;5946;51.770;8.548;2023-10-09T09:39:18;24.93;;;15.70;;
11777;SDS011;5946;51.770;8.548;2023-10-09T09:41:44;28.20;;;16.20;;
11777;SDS011;5946;51.770;8.548;2023-10-09T09:44:10;26.83;;;16.33;;
11777;SDS011;5946;51.770;8.548;2023-10-09T09:46:42;21.50;;;15.10;;
11777;SDS011;5946;51.770;8.548;2023-10-09T09:49:09;19.93;;;14.13;;
11777;SDS011;5946;51.770;8.548;2023-10-09T09:51:44;21.70;;;14.63;;
11777;SDS011;5946;51.770;8.548;2023-10-09T09:54:12;25.97;;;14.40;;
11777;SDS011;5946;51.770;8.548;2023-10-09T09:56:40;23.33;;;13.90;;
11777;SDS011;5946;51.770;8.548;2023-10-09T09:59:08;21.80;;;13.90;;
11777;SDS011;5946;51.770;8.548;2023-10-09T10:01:38;21.63;;;13.60;;
11777;SDS011;5946;51.770;8.548;2023-10-09T10:04:09;20.97;;;14.43;;
11777;SDS011;5946;51.770;8.548;2023-10-09T10:06:38;21.90;;;14.27;;
11777;SDS011;5946;51.770;8.548;2023-10-09T10:09:06;23.33;;;14.40;;
11777;SDS011;5946;51.770;8.548;2023-10-09T10:11:53;24.77;;;13.67;;
11777;SDS011;5946;51.770;8.548;2023-10-09T10:14:19;25.63;;;13.43;;
11777;SDS011;5946;51.770;8.548;2023-10-09T10:17:00;21.73;;;13.87;;
11777;SDS011;5946;51.770;8.548;2023-10-09T10:19:50;30.07;;;14.97;;
11777;SDS011;5946;51.770;8.548;2023-10-09T10:22:24;20.67;;;13.10;;
11777;SDS011;5946;51.770;8.548;2023-10-09T10:24:55;19.33;;;12.63;;
11777;SDS011;5946;51.770;8.548;2023-10-09T10:27:22;23.63;;;13.27;;
11777;SDS011;5946;51.770;8.548;2023-10-09T10:30:26;18.63;;;13.13;;
11777;SDS011;5946;51.770;8.548;2023-10-09T10:35:16;20.80;;;13.57;;
11777;SDS011;5946;51.770;8.548;2023-10-09T10:37:45;20.37;;;12.70;;
11777;SDS011;5946;51.770;8.548;2023-10-09T10:40:28;20.40;;;13.17;;
11777;SDS011;5946;51.770;8.548;2023-10-09T10:43:03;20.20;;;13.53;;
11777;SDS011;5946;51.770;8.548;2023-10-09T10:46:00;23.73;;;13.27;;
11777;SDS011;5946;51.770;8.548;2023-10-09T10:48:26;22.03;;;14.00;;
11777;SDS011;5946;51.770;8.548;2023-10-09T10:51:03;21.53;;;13.97;;
11777;SDS011;5946;51.770;8.548;2023-10-09T10:53:29;25.57;;;13.87;;
11777;SDS011;5946;51.770;8.548;2023-10-09T10:56:12;22.50;;;13.40;;
11777;SDS011;5946;51.770;8.548;2023-10-09T10:58:38;18.87;;;13.87;;
11777;SDS011;5946;51.770;8.548;2023-10-09T11:01:12;19.57;;;12.93;;
11777;SDS011;5946;51.770;8.548;2023-10-09T11:03:41;18.37;;;13.27;;
11777;SDS011;5946;51.770;8.548;2023-10-09T11:06:30;20.90;;;12.60;;
11777;SDS011;5946;51.770;8.548;2023-10-09T11:09:06;23.03;;;13.63;;
11777;SDS011;5946;51.770;8.548;2023-10-09T11:11:55;21.70;;;13.10;;
11777;SDS011;5946;51.770;8.548;2023-10-09T11:14:44;21.77;;;14.07;;
11777;SDS011;5946;51.770;8.548;2023-10-09T11:17:14;24.53;;;13.97;;
11777;SDS011;5946;51.770;8.548;2023-10-09T11:19:48;20.67;;;13.17;;
11777;SDS011;5946;51.770;8.548;2023-10-09T11:22:17;20.83;;;13.53;;
11777;SDS011;5946;51.770;8.548;2023-10-09T11:24:53;21.63;;;13.70;;
11777;SDS011;5946;51.770;8.548;2023-10-09T11:27:39;20.70;;;13.13;;
11777;SDS011;5946;51.770;8.548;2023-10-09T11:30:15;19.37;;;12.97;;
11777;SDS011;5946;51.770;8.548;2023-10-09T11:33:03;21.60;;;14.30;;
11777;SDS011;5946;51.770;8.548;2023-10-09T11:35:29;24.50;;;13.83;;
11777;SDS011;5946;51.770;8.548;2023-10-09T11:37:59;22.43;;;14.07;;
11777;SDS011;5946;51.770;8.548;2023-10-09T11:40:27;23.70;;;13.23;;
11777;SDS011;5946;51.770;8.548;2023-10-09T11:42:59;24.30;;;14.83;;
11777;SDS011;5946;51.770;8.548;2023-10-09T11:45:26;23.40;;;14.50;;
11777;SDS011;5946;51.770;8.548;2023-10-09T11:47:56;22.87;;;14.80;;
11777;SDS011;5946;51.770;8.548;2023-10-09T11:50:39;22.13;;;15.53;;
11777;SDS011;5946;51.770;8.548;2023-10-09T11:53:08;22.60;;;14.93;;
11777;SDS011;5946;51.770;8.548;2023-10-09T11:55:42;22.43;;;14.70;;
11777;SDS011;5946;51.770;8.548;2023-10-09T11:58:13;24.40;;;15.30;;
11777;SDS011;5946;51.770;8.548;2023-10-09T12:00:39;23.40;;;15.23;;
11777;SDS011;5946;51.770;8.548;2023-10-09T12:03:12;23.50;;;15.23;;
11777;SDS011;5946;51.770;8.548;2023-10-09T12:05:41;22.20;;;15.90;;
11777;SDS011;5946;51.770;8.548;2023-10-09T12:08:09;23.87;;;15.63;;
11777;SDS011;5946;51.770;8.548;2023-10-09T12:10:36;21.00;;;15.63;;
11777;SDS011;5946;51.770;8.548;2023-10-09T12:13:05;24.37;;;17.67;;
11777;SDS011;5946;51.770;8.548;2023-10-09T12:15:32;22.23;;;16.57;;
11777;SDS011;5946;51.770;8.548;2023-10-09T12:18:05;25.03;;;17.67;;
11777;SDS011;5946;51.770;8.548;2023-10-09T12:20:34;24.93;;;17.90;;
11777;SDS011;5946;51.770;8.548;2023-10-09T12:23:01;30.80;;;18.07;;
11777;SDS011;5946;51.770;8.548;2023-10-09T12:25:29;27.37;;;18.30;;
11777;SDS011;5946;51.770;8.548;2023-10-09T12:27:56;25.67;;;18.73;;
11777;SDS011;5946;51.770;8.548;2023-10-09T12:30:23;25.60;;;17.40;;
11777;SDS011;5946;51.770;8.548;2023-10-09T12:32:58;27.37;;;18.67;;
11777;SDS011;5946;51.770;8.548;2023-10-09T12:35:24;27.53;;;17.93;;
11777;SDS011;5946;51.770;8.548;2023-10-09T12:37:54;30.20;;;18.67;;
11777;SDS011;5946;51.770;8.548;2023-10-09T12:40:23;28.53;;;18.97;;
11777;SDS011;5946;51.770;8.548;2023-10-09T12:42:52;26.10;;;18.77;;
11777;SDS011;5946;51.770;8.548;2023-10-09T12:45:18;25.77;;;19.33;;
11777;SDS011;5946;51.770;8.548;2023-10-09T12:47:51;26.23;;;19.90;;
11777;SDS011;5946;51.770;8.548;2023-10-09T12:50:17;29.10;;;19.70;;
11777;SDS011;5946;51.770;8.548;2023-10-09T12:52:52;32.07;;;20.07;;
11777;SDS011;5946;51.770;8.548;2023-10-09T12:55:18;32.40;;;25.10;;
11777;SDS011;5946;51.770;8.548;2023-10-09T12:57:45;27.93;;;19.37;;
11777;SDS011;5946;51.770;8.548;2023-10-09T13:00:13;30.43;;;20.07;;
11777;SDS011;5946;51.770;8.548;2023-10-09T13:02:50;31.53;;;20.20;;
11777;SDS011;5946;51.770;8.548;2023-10-09T13:05:16;29.50;;;19.53;;
11777;SDS011;5946;51.770;8.548;2023-10-09T13:07:51;29.00;;;19.07;;
11777;SDS011;5946;51.770;8.548;2023-10-09T13:10:18;28.57;;;18.37;;
11777;SDS011;5946;51.770;8.548;2023-10-09T13:12:44;27.53;;;18.03;;
11777;SDS011;5946;51.770;8.548;2023-10-09T13:15:10;30.17;;;18.93;;
11777;SDS011;5946;51.770;8.548;2023-10-09T13:17:39;24.17;;;16.60;;
11777;SDS011;5946;51.770;8.548;2023-10-09T13:20:06;23.70;;;16.40;;
11777;SDS011;5946;51.770;8.548;2023-10-09T13:22:41;26.93;;;17.20;;
11777;SDS011;5946;51.770;8.548;2023-10-09T13:25:10;25.20;;;16.90;;
11777;SDS011;5946;51.770;8.548;2023-10-09T13:27:57;26.37;;;16.70;;
11777;SDS011;5946;51.770;8.548;2023-10-09T13:30:28;30.10;;;15.90;;
11777;SDS011;5946;51.770;8.548;2023-10-09T13:32:54;24.00;;;16.20;;
11777;SDS011;5946;51.770;8.548;2023-10-09T13:35:20;25.10;;;16.27;;
11777;SDS011;5946;51.770;8.548;2023-10-09T13:38:02;27.90;;;16.60;;
11777;SDS011;5946;51.770;8.548;2023-10-09T13:40:33;24.63;;;17.07;;
11777;SDS011;5946;51.770;8.548;2023-10-09T13:43:02;25.53;;;16.43;;
11777;SDS011;5946;51.770;8.548;2023-10-09T13:45:28;26.83;;;15.97;;
11777;SDS011;5946;51.770;8.548;2023-10-09T13:47:58;24.30;;;15.37;;
11777;SDS011;5946;51.770;8.548;2023-10-09T13:50:28;23.33;;;16.20;;
11777;SDS011;5946;51.770;8.548;2023-10-09T13:52:57;26.77;;;16.63;;
11777;SDS011;5946;51.770;8.548;2023-10-09T13:55:23;30.40;;;16.20;;
11777;SDS011;5946;51.770;8.548;2023-10-09T13:57:56;24.17;;;16.50;;
11777;SDS011;5946;51.770;8.548;2023-10-09T14:00:22;24.17;;;15.47;;
11777;SDS011;5946;51.770;8.548;2023-10-09T14:02:59;26.67;;;15.97;;
11777;SDS011;5946;51.770;8.548;2023-10-09T14:05:27;27.53;;;15.60;;
11777;SDS011;5946;51.770;8.548;2023-10-09T14:07:53;22.43;;;15.90;;
11777;SDS011;5946;51.770;8.548;2023-10-09T14:10:21;31.30;;;15.73;;
11777;SDS011;5946;51.770;8.548;2023-10-09T14:12:51;25.60;;;16.87;;
11777;SDS011;5946;51.770;8.548;2023-10-09T14:15:19;24.83;;;15.07;;
11777;SDS011;5946;51.770;8.548;2023-10-09T14:17:45;23.43;;;14.93;;
11777;SDS011;5946;51.770;8.548;2023-10-09T14:20:20;25.17;;;15.10;;
11777;SDS011;5946;51.770;8.548;2023-10-09T14:22:56;27.30;;;14.60;;
11777;SDS011;5946;51.770;8.548;2023-10-09T14:25:22;21.80;;;14.63;;
11777;SDS011;5946;51.770;8.548;2023-10-09T14:27:48;24.33;;;14.23;;
11777;SDS011;5946;51.770;8.548;2023-10-09T14:30:17;19.43;;;14.37;;
11777;SDS011;5946;51.770;8.548;2023-10-09T14:32:55;20.80;;;14.10;;
11777;SDS011;5946;51.770;8.548;2023-10-09T14:35:21;19.93;;;14.03;;
11777;SDS011;5946;51.770;8.548;2023-10-09T14:37:52;24.43;;;14.70;;
11777;SDS011;5946;51.770;8.548;2023-10-09T14:40:22;26.40;;;15.20;;
11777;SDS011;5946;51.770;8.548;2023-10-09T14:42:55;20.90;;;13.93;;
11777;SDS011;5946;51.770;8.548;2023-10-09T14:45:23;26.27;;;14.73;;
11777;SDS011;5946;51.770;8.548;2023-10-09T14:47:50;21.87;;;15.37;;
11777;SDS011;5946;51.770;8.548;2023-10-09T14:50:18;26.53;;;15.83;;
11777;SDS011;5946;51.770;8.548;2023-10-09T14:52:47;27.33;;;18.73;;
11777;SDS011;5946;51.770;8.548;2023-10-09T14:55:13;28.27;;;14.23;;
11777;SDS011;5946;51.770;8.548;2023-10-09T14:57:45;24.97;;;14.70;;
11777;SDS011;5946;51.770;8.548;2023-10-09T15:00:11;22.87;;;15.00;;
11777;SDS011;5946;51.770;8.548;2023-10-09T15:02:39;25.13;;;14.90;;
11777;SDS011;5946;51.770;8.548;2023-10-09T15:05:05;23.27;;;15.20;;
11777;SDS011;5946;51.770;8.548;2023-10-09T15:07:35;21.90;;;15.27;;
11777;SDS011;5946;51.770;8.548;2023-10-09T15:10:04;22.00;;;14.70;;
11777;SDS011;5946;51.770;8.548;2023-10-09T15:12:30;26.30;;;15.70;;
11777;SDS011;5946;51.770;8.548;2023-10-09T15:14:56;19.93;;;14.07;;
11777;SDS011;5946;51.770;8.548;2023-10-09T15:17:22;22.80;;;14.77;;
11777;SDS011;5946;51.770;8.548;2023-10-09T15:19:49;24.37;;;15.13;;
11777;SDS011;5946;51.770;8.548;2023-10-09T15:22:21;21.80;;;14.37;;
11777;SDS011;5946;51.770;8.548;2023-10-09T15:24:47;24.57;;;13.97;;